sensor_id;sensor_type;location;lat;lon;timestamp;pressure;altitude;pressure_sealevel;temperature;humidity
4123;BME280;2075;51.062;6.920;2024-01-30T00:00:45;89216.59;;;-144.48;100.00
4123;BME280;2075;51.062;6.920;2024-01-30T00:03:31;87235.13;;;-144.48;100.00
4123;BME280;2075;51.062;6.920;2024-01-30T00:06:20;87841.41;;;-144.48;100.00
4123;BME280;2075;51.062;6.920;2024-01-30T00:09:06;87766.38;;;-144.48;100.00
4123;BME280;2075;51.062;6.920;2024-01-30T00:11:53;88289.59;;;-144.48;100.00
4123;BME280;2075;51.062;6.920;2024-01-30T00:14:40;88478.22;;;-144.48;100.00
4123;BME280;2075;51.062;6.920;2024-01-30T00:17:26;87091.16;;;-144.48;100.00
4123;BME280;2075;51.062;6.920;2024-01-30T00:20:12;85112.94;;;-144.48;100.00
4123;BME280;2075;51.062;6.920;2024-01-30T00:22:58;82396.75;;;-144.48;100.00
4123;BME280;2075;51.062;6.920;2024-01-30T00:25:44;81396.72;;;-144.48;100.00
4123;BME280;2075;51.062;6.920;2024-01-30T00:28:30;83166.22;;;-144.48;100.00
4123;BME280;2075;51.062;6.920;2024-01-30T00:31:16;81831.91;;;-144.48;100.00
4123;BME280;2075;51.062;6.920;2024-01-30T00:34:01;81044.53;;;-144.48;100.00
4123;BME280;2075;51.062;6.920;2024-01-30T00:36:46;81965.53;;;-144.48;100.00
4123;BME280;2075;51.062;6.920;2024-01-30T00:39:33;80040.81;;;-144.48;100.00
4123;BME280;2075;51.062;6.920;2024-01-30T00:42:19;78592.44;;;-144.48;100.00
4123;BME280;2075;51.062;6.920;2024-01-30T00:45:06;76720.16;;;-144.48;100.00
4123;BME280;2075;51.062;6.920;2024-01-30T00:47:52;72714.16;;;-144.48;100.00
4123;BME280;2075;51.062;6.920;2024-01-30T00:50:37;71614.00;;;-144.48;100.00
4123;BME280;2075;51.062;6.920;2024-01-30T00:53:22;70516.19;;;-144.48;100.00
4123;BME280;2075;51.062;6.920;2024-01-30T00:56:09;67644.19;;;-144.48;100.00
4123;BME280;2075;51.062;6.920;2024-01-30T00:58:55;70635.22;;;-144.48;100.00
4123;BME280;2075;51.062;6.920;2024-01-30T01:01:41;69846.38;;;-144.48;100.00
4123;BME280;2075;51.062;6.920;2024-01-30T01:04:26;66354.19;;;-144.48;100.00
4123;BME280;2075;51.062;6.920;2024-01-30T01:07:12;68160.31;;;-144.48;100.00
4123;BME280;2075;51.062;6.920;2024-01-30T01:09:57;70485.91;;;-144.48;100.00
4123;BME280;2075;51.062;6.920;2024-01-30T01:12:44;71658.38;;;-144.48;100.00
4123;BME280;2075;51.062;6.920;2024-01-30T01:15:29;77698.63;;;-144.48;100.00
4123;BME280;2075;51.062;6.920;2024-01-30T01:18:15;78260.78;;;-144.48;100.00
4123;BME280;2075;51.062;6.920;2024-01-30T01:21:00;77706.72;;;-144.48;100.00
4123;BME280;2075;51.062;6.920;2024-01-30T01:23:46;77670.31;;;-144.48;100.00
4123;BME280;2075;51.062;6.920;2024-01-30T01:26:31;79850.63;;;-144.48;100.00
4123;BME280;2075;51.062;6.920;2024-01-30T01:29:18;78883.69;;;-144.48;100.00
4123;BME280;2075;51.062;6.920;2024-01-30T01:32:05;77838.16;;;-144.48;100.00
4123;BME280;2075;51.062;6.920;2024-01-30T01:34:50;77492.41;;;-144.48;100.00
4123;BME280;2075;51.062;6.920;2024-01-30T01:37:36;77836.13;;;-144.48;100.00
4123;BME280;2075;51.062;6.920;2024-01-30T01:40:22;75010.53;;;-144.48;100.00
4123;BME280;2075;51.062;6.920;2024-01-30T01:43:08;74564.06;;;-144.48;100.00
4123;BME280;2075;51.062;6.920;2024-01-30T01:45:54;69192.84;;;-144.48;100.00
4123;BME280;2075;51.062;6.920;2024-01-30T01:48:41;72744.44;;;-144.48;100.00
4123;BME280;2075;51.062;6.920;2024-01-30T01:51:29;74630.72;;;-144.48;100.00
4123;BME280;2075;51.062;6.920;2024-01-30T01:54:16;77474.22;;;-144.48;100.00
4123;BME280;2075;51.062;6.920;2024-01-30T01:57:02;80639.78;;;-144.48;100.00
4123;BME280;2075;51.062;6.920;2024-01-30T01:59:48;80042.84;;;-144.48;100.00
4123;BME280;2075;51.062;6.920;2024-01-30T02:02:36;82714.66;;;-144.48;100.00
4123;BME280;2075;51.062;6.920;2024-01-30T02:05:22;82821.97;;;-144.48;100.00
4123;BME280;2075;51.062;6.920;2024-01-30T02:08:09;85258.84;;;-144.48;100.00
4123;BME280;2075;51.062;6.920;2024-01-30T02:10:54;86673.53;;;-144.48;100.00
4123;BME280;2075;51.062;6.920;2024-01-30T02:13:41;86594.47;;;-144.48;100.00
4123;BME280;2075;51.062;6.920;2024-01-30T02:16:26;85283.16;;;-144.48;100.00
4123;BME280;2075;51.062;6.920;2024-01-30T02:19:13;85558.75;;;-144.48;100.00
4123;BME280;2075;51.062;6.920;2024-01-30T02:22:00;87145.91;;;-144.48;100.00
4123;BME280;2075;51.062;6.920;2024-01-30T02:24:46;86257.97;;;-144.48;100.00
4123;BME280;2075;51.062;6.920;2024-01-30T02:27:31;87478.44;;;-144.48;100.00
4123;BME280;2075;51.062;6.920;2024-01-30T02:30:16;86989.78;;;-144.48;100.00
4123;BME280;2075;51.062;6.920;2024-01-30T02:33:02;88263.22;;;-144.48;100.00
4123;BME280;2075;51.062;6.920;2024-01-30T02:35:47;89531.03;;;-144.48;100.00
4123;BME280;2075;51.062;6.920;2024-01-30T02:38:34;90675.53;;;-144.48;100.00
4123;BME280;2075;51.062;6.920;2024-01-30T02:41:19;91536.16;;;-144.48;100.00
4123;BME280;2075;51.062;6.920;2024-01-30T02:44:05;90939.38;;;-144.48;100.00
4123;BME280;2075;51.062;6.920;2024-01-30T02:46:51;90204.69;;;-144.48;100.00
4123;BME280;2075;51.062;6.920;2024-01-30T02:49:38;90547.66;;;-144.48;100.00
4123;BME280;2075;51.062;6.920;2024-01-30T02:52:23;90886.59;;;-144.48;100.00
4123;BME280;2075;51.062;6.920;2024-01-30T02:55:10;90446.19;;;-144.48;100.00
4123;BME280;2075;51.062;6.920;2024-01-30T02:57:55;90040.34;;;-144.48;100.00
4123;BME280;2075;51.062;6.920;2024-01-30T03:00:41;91012.44;;;-144.48;100.00
4123;BME280;2075;51.062;6.920;2024-01-30T03:03:26;90679.59;;;-144.48;100.00
4123;BME280;2075;51.062;6.920;2024-01-30T03:06:12;90239.19;;;-144.48;100.00
4123;BME280;2075;51.062;6.920;2024-01-30T03:08:59;90192.53;;;-144.48;100.00
4123;BME280;2075;51.062;6.920;2024-01-30T03:11:46;90119.47;;;-144.48;100.00
4123;BME280;2075;51.062;6.920;2024-01-30T03:14:31;89372.78;;;-144.48;100.00
4123;BME280;2075;51.062;6.920;2024-01-30T03:17:16;90273.69;;;-144.48;100.00
4123;BME280;2075;51.062;6.920;2024-01-30T03:20:02;91022.59;;;-144.48;100.00
4123;BME280;2075;51.062;6.920;2024-01-30T03:22:48;90787.16;;;-144.48;100.00
4123;BME280;2075;51.062;6.920;2024-01-30T03:25:36;90030.19;;;-144.48;100.00
4123;BME280;2075;51.062;6.920;2024-01-30T03:28:23;91004.31;;;-144.48;100.00
4123;BME280;2075;51.062;6.920;2024-01-30T03:31:08;91641.72;;;-144.48;100.00
4123;BME280;2075;51.062;6.920;2024-01-30T03:33:53;92606.16;;;-144.48;100.00
4123;BME280;2075;51.062;6.920;2024-01-30T03:36:39;92941.25;;;-144.48;100.00
4123;BME280;2075;51.062;6.920;2024-01-30T03:39:24;92985.94;;;-144.48;100.00
4123;BME280;2075;51.062;6.920;2024-01-30T03:42:09;93180.91;;;-144.48;100.00
4123;BME280;2075;51.062;6.920;2024-01-30T03:44:56;93471.34;;;-144.48;100.00
4123;BME280;2075;51.062;6.920;2024-01-30T03:47:43;93487.59;;;-144.48;100.00
4123;BME280;2075;51.062;6.920;2024-01-30T03:50:28;93412.44;;;-144.48;100.00
4123;BME280;2075;51.062;6.920;2024-01-30T03:53:14;93465.25;;;-144.48;100.00
4123;BME280;2075;51.062;6.920;2024-01-30T03:55:59;93497.75;;;-144.48;100.00
4123;BME280;2075;51.062;6.920;2024-01-30T03:58:45;93499.78;;;-144.48;100.00
4123;BME280;2075;51.062;6.920;2024-01-30T04:01:31;93489.63;;;-144.48;100.00
4123;BME280;2075;51.062;6.920;2024-01-30T04:04:17;93648.06;;;-144.48;100.00
4123;BME280;2075;51.062;6.920;2024-01-30T04:07:03;93711.03;;;-144.48;100.00
4123;BME280;2075;51.062;6.920;2024-01-30T04:09:48;93408.38;;;-144.48;100.00
4123;BME280;2075;51.062;6.920;2024-01-30T04:12:33;93073.25;;;-144.48;100.00
4123;BME280;2075;51.062;6.920;2024-01-30T04:15:19;92945.31;;;-144.48;100.00
4123;BME280;2075;51.062;6.920;2024-01-30T04:18:06;92591.94;;;-144.48;100.00
4123;BME280;2075;51.062;6.920;2024-01-30T04:20:51;91796.03;;;-144.48;100.00
4123;BME280;2075;51.062;6.920;2024-01-30T04:23:37;90263.56;;;-144.48;100.00
4123;BME280;2075;51.062;6.920;2024-01-30T04:26:22;87518.97;;;-144.48;100.00
4123;BME280;2075;51.062;6.920;2024-01-30T04:29:07;87707.56;;;-144.48;100.00
4123;BME280;2075;51.062;6.920;2024-01-30T04:31:53;86574.19;;;-144.48;100.00
4123;BME280;2075;51.062;6.920;2024-01-30T04:34:39;81663.91;;;-144.48;100.00
4123;BME280;2075;51.062;6.920;2024-01-30T04:37:25;78774.47;;;-144.48;100.00
4123;BME280;2075;51.062;6.920;2024-01-30T04:40:11;79146.63;;;-144.48;100.00
4123;BME280;2075;51.062;6.920;2024-01-30T04:42:57;77555.06;;;-144.48;100.00
4123;BME280;2075;51.062;6.920;2024-01-30T04:45:42;74230.75;;;-144.48;100.00
4123;BME280;2075;51.062;6.920;2024-01-30T04:48:28;73540.03;;;-144.48;100.00
4123;BME280;2075;51.062;6.920;2024-01-30T04:51:14;70709.88;;;-144.48;100.00
4123;BME280;2075;51.062;6.920;2024-01-30T04:54:00;65064.69;;;-144.48;100.00
4123;BME280;2075;51.062;6.920;2024-01-30T04:56:45;63775.66;;;-144.48;100.00
4123;BME280;2075;51.062;6.920;2024-01-30T04:59:31;61971.84;;;-144.48;100.00
4123;BME280;2075;51.062;6.920;2024-01-30T05:02:16;61456.66;;;-144.48;100.00
4123;BME280;2075;51.062;6.920;2024-01-30T05:05:02;58109.78;;;-144.48;100.00
4123;BME280;2075;51.062;6.920;2024-01-30T05:07:49;54509.13;;;-144.48;100.00
4123;BME280;2075;51.062;6.920;2024-01-30T05:10:34;53738.03;;;-144.48;100.00
4123;BME280;2075;51.062;6.920;2024-01-30T05:13:20;52710.22;;;-144.48;100.00
4123;BME280;2075;51.062;6.920;2024-01-30T05:16:06;50398.75;;;-144.48;100.00
4123;BME280;2075;51.062;6.920;2024-01-30T05:18:51;50142.03;;;-144.48;100.00
4123;BME280;2075;51.062;6.920;2024-01-30T05:21:36;47832.31;;;-144.48;100.00
4123;BME280;2075;51.062;6.920;2024-01-30T05:24:23;47832.31;;;-144.48;100.00
4123;BME280;2075;51.062;6.920;2024-01-30T05:27:09;45524.19;;;-144.48;100.00
4123;BME280;2075;51.062;6.920;2024-01-30T05:29:57;45267.84;;;-144.48;100.00
4123;BME280;2075;51.062;6.920;2024-01-30T05:32:43;45011.50;;;-144.48;100.00
4123;BME280;2075;51.062;6.920;2024-01-30T05:35:30;46036.97;;;-144.48;100.00
4123;BME280;2075;51.062;6.920;2024-01-30T05:38:17;44498.88;;;-144.48;100.00
4123;BME280;2075;51.062;6.920;2024-01-30T05:41:04;41168.72;;;-144.48;100.00
4123;BME280;2075;51.062;6.920;2024-01-30T05:43:49;43730.06;;;-144.48;100.00
4123;BME280;2075;51.062;6.920;2024-01-30T05:46:35;43473.84;;;-144.48;100.00
4123;BME280;2075;51.062;6.920;2024-01-30T05:49:20;44498.88;;;-144.48;100.00
4123;BME280;2075;51.062;6.920;2024-01-30T05:52:07;46806.28;;;-144.48;100.00
4123;BME280;2075;51.062;6.920;2024-01-30T05:54:52;48858.66;;;-144.48;100.00
4123;BME280;2075;51.062;6.920;2024-01-30T05:57:39;50398.75;;;-144.48;100.00
4123;BME280;2075;51.062;6.920;2024-01-30T06:00:25;51169.06;;;-144.48;100.00
4123;BME280;2075;51.062;6.920;2024-01-30T06:03:11;52196.44;;;-144.48;100.00
4123;BME280;2075;51.062;6.920;2024-01-30T06:05:56;49371.94;;;-144.48;100.00
4123;BME280;2075;51.062;6.920;2024-01-30T06:08:42;49885.31;;;-144.48;100.00
4123;BME280;2075;51.062;6.920;2024-01-30T06:11:27;50655.50;;;-144.48;100.00
4123;BME280;2075;51.062;6.920;2024-01-30T06:14:14;49628.63;;;-144.48;100.00
4123;BME280;2075;51.062;6.920;2024-01-30T06:17:00;50142.03;;;-144.48;100.00
4123;BME280;2075;51.062;6.920;2024-01-30T06:19:46;50655.50;;;-144.48;100.00
4123;BME280;2075;51.062;6.920;2024-01-30T06:22:31;49371.94;;;-144.48;100.00
4123;BME280;2075;51.062;6.920;2024-01-30T06:25:17;47319.28;;;-144.48;100.00
4123;BME280;2075;51.062;6.920;2024-01-30T06:28:03;46806.28;;;-144.48;100.00
4123;BME280;2075;51.062;6.920;2024-01-30T06:30:50;47575.78;;;-144.48;100.00
4123;BME280;2075;51.062;6.920;2024-01-30T06:33:35;50398.75;;;-144.48;100.00
4123;BME280;2075;51.062;6.920;2024-01-30T06:36:21;53481.06;;;-144.48;100.00
4123;BME280;2075;51.062;6.920;2024-01-30T06:39:06;60169.00;;;-144.48;100.00
4123;BME280;2075;51.062;6.920;2024-01-30T06:41:51;64291.22;;;-144.48;100.00
4123;BME280;2075;51.062;6.920;2024-01-30T06:44:37;72421.41;;;-144.48;100.00
4123;BME280;2075;51.062;6.920;2024-01-30T06:47:23;73548.09;;;-144.48;100.00
4123;BME280;2075;51.062;6.920;2024-01-30T06:50:09;77243.72;;;-144.48;100.00
4123;BME280;2075;51.062;6.920;2024-01-30T06:52:55;79672.59;;;-144.48;100.00
4123;BME280;2075;51.062;6.920;2024-01-30T06:55:40;76918.25;;;-144.48;100.00
4123;BME280;2075;51.062;6.920;2024-01-30T06:58:26;77763.34;;;-144.48;100.00
4123;BME280;2075;51.062;6.920;2024-01-30T07:01:11;80095.44;;;-144.48;100.00
4123;BME280;2075;51.062;6.920;2024-01-30T07:03:59;80540.63;;;-144.48;100.00
4123;BME280;2075;51.062;6.920;2024-01-30T07:06:45;82216.56;;;-144.48;100.00
4123;BME280;2075;51.062;6.920;2024-01-30T07:09:30;82498.00;;;-144.48;100.00
4123;BME280;2075;51.062;6.920;2024-01-30T07:12:16;81615.31;;;-144.48;100.00
4123;BME280;2075;51.062;6.920;2024-01-30T07:15:01;82097.13;;;-144.48;100.00
4123;BME280;2075;51.062;6.920;2024-01-30T07:17:47;82141.66;;;-144.48;100.00
4123;BME280;2075;51.062;6.920;2024-01-30T07:20:34;79759.59;;;-144.48;100.00
4123;BME280;2075;51.062;6.920;2024-01-30T07:23:19;77670.31;;;-144.48;100.00
4123;BME280;2075;51.062;6.920;2024-01-30T07:26:04;77838.16;;;-144.48;100.00
4123;BME280;2075;51.062;6.920;2024-01-30T07:28:50;79172.94;;;-144.48;100.00
4123;BME280;2075;51.062;6.920;2024-01-30T07:31:36;81643.66;;;-144.48;100.00
4123;BME280;2075;51.062;6.920;2024-01-30T07:34:21;83854.84;;;-144.48;100.00
4123;BME280;2075;51.062;6.920;2024-01-30T07:37:08;82965.75;;;-144.48;100.00
4123;BME280;2075;51.062;6.920;2024-01-30T07:39:59;85712.78;;;-144.48;100.00
4123;BME280;2075;51.062;6.920;2024-01-30T07:42:45;87792.72;;;-144.48;100.00
4123;BME280;2075;51.062;6.920;2024-01-30T07:45:31;88715.53;;;-144.48;100.00
4123;BME280;2075;51.062;6.920;2024-01-30T07:48:18;89354.53;;;-144.48;100.00
4123;BME280;2075;51.062;6.920;2024-01-30T07:51:04;90740.47;;;-144.48;100.00
4123;BME280;2075;51.062;6.920;2024-01-30T07:53:50;92001.06;;;-144.48;100.00
4123;BME280;2075;51.062;6.920;2024-01-30T07:56:35;92640.69;;;-144.48;100.00
4123;BME280;2075;51.062;6.920;2024-01-30T07:59:24;93144.34;;;-144.48;100.00
4123;BME280;2075;51.062;6.920;2024-01-30T08:02:10;93794.31;;;-144.48;100.00
4123;BME280;2075;51.062;6.920;2024-01-30T08:04:55;93836.97;;;-144.48;100.00
4123;BME280;2075;51.062;6.920;2024-01-30T08:07:41;93845.09;;;-144.48;100.00
4123;BME280;2075;51.062;6.920;2024-01-30T08:10:28;94080.75;;;-144.48;100.00
4123;BME280;2075;51.062;6.920;2024-01-30T08:13:14;94123.44;;;-144.48;100.00
4123;BME280;2075;51.062;6.920;2024-01-30T08:16:01;94143.75;;;-144.48;100.00
4123;BME280;2075;51.062;6.920;2024-01-30T08:18:47;94249.38;;;-144.48;100.00
4123;BME280;2075;51.062;6.920;2024-01-30T08:21:37;94149.84;;;-144.48;100.00
4123;BME280;2075;51.062;6.920;2024-01-30T08:24:23;94013.72;;;-144.48;100.00
4123;BME280;2075;51.062;6.920;2024-01-30T08:27:10;94139.69;;;-144.48;100.00
4123;BME280;2075;51.062;6.920;2024-01-30T08:29:56;94176.25;;;-144.48;100.00
4123;BME280;2075;51.062;6.920;2024-01-30T08:32:42;94562.28;;;-144.48;100.00
4123;BME280;2075;51.062;6.920;2024-01-30T08:35:28;94243.28;;;-144.48;100.00
4123;BME280;2075;51.062;6.920;2024-01-30T08:38:17;94355.03;;;-144.48;100.00
4123;BME280;2075;51.062;6.920;2024-01-30T08:41:07;94385.50;;;-144.48;100.00
4123;BME280;2075;51.062;6.920;2024-01-30T08:43:54;94383.47;;;-144.48;100.00
4123;BME280;2075;51.062;6.920;2024-01-30T08:46:40;94444.44;;;-144.48;100.00
4123;BME280;2075;51.062;6.920;2024-01-30T08:49:26;94415.97;;;-144.48;100.00
4123;BME280;2075;51.062;6.920;2024-01-30T08:52:11;94472.88;;;-144.48;100.00
4123;BME280;2075;51.062;6.920;2024-01-30T08:55:00;94523.66;;;-144.48;100.00
4123;BME280;2075;51.062;6.920;2024-01-30T08:57:47;94493.19;;;-144.48;100.00
4123;BME280;2075;51.062;6.920;2024-01-30T09:00:35;94525.69;;;-144.48;100.00
4123;BME280;2075;51.062;6.920;2024-01-30T09:03:22;94533.81;;;-144.48;100.00
4123;BME280;2075;51.062;6.920;2024-01-30T09:06:08;94464.75;;;-144.48;100.00
4123;BME280;2075;51.062;6.920;2024-01-30T09:08:57;94509.44;;;-144.48;100.00
4123;BME280;2075;51.062;6.920;2024-01-30T09:11:45;94483.03;;;-144.48;100.00
4123;BME280;2075;51.062;6.920;2024-01-30T09:14:35;94503.34;;;-144.48;100.00
4123;BME280;2075;51.062;6.920;2024-01-30T09:17:22;94468.81;;;-144.48;100.00
4123;BME280;2075;51.062;6.920;2024-01-30T09:20:09;94454.59;;;-144.48;100.00
4123;BME280;2075;51.062;6.920;2024-01-30T09:22:56;94407.84;;;-144.48;100.00
4123;BME280;2075;51.062;6.920;2024-01-30T09:25:42;94424.09;;;-144.48;100.00
4123;BME280;2075;51.062;6.920;2024-01-30T09:28:28;94273.75;;;-144.48;100.00
4123;BME280;2075;51.062;6.920;2024-01-30T09:31:15;94418.00;;;-144.48;100.00
4123;BME280;2075;51.062;6.920;2024-01-30T09:34:05;94403.78;;;-144.48;100.00
4123;BME280;2075;51.062;6.920;2024-01-30T09:36:52;94413.94;;;-144.48;100.00
4123;BME280;2075;51.062;6.920;2024-01-30T09:39:38;94422.06;;;-144.48;100.00
4123;BME280;2075;51.062;6.920;2024-01-30T09:42:28;94432.25;;;-144.48;100.00
4123;BME280;2075;51.062;6.920;2024-01-30T09:45:14;94436.31;;;-144.48;99.58
4123;BME280;2075;51.062;6.920;2024-01-30T09:48:02;94389.56;;;-144.48;98.13
4123;BME280;2075;51.062;6.920;2024-01-30T09:50:51;94391.59;;;-144.48;97.91
4123;BME280;2075;51.062;6.920;2024-01-30T09:53:38;94355.03;;;-144.48;96.63
4123;BME280;2075;51.062;6.920;2024-01-30T09:56:27;94326.59;;;-144.48;96.89
4123;BME280;2075;51.062;6.920;2024-01-30T09:59:15;94391.59;;;-144.48;95.96
4123;BME280;2075;51.062;6.920;2024-01-30T10:02:03;94375.34;;;-144.48;94.99
4123;BME280;2075;51.062;6.920;2024-01-30T10:04:50;94399.72;;;-144.48;93.44
4123;BME280;2075;51.062;6.920;2024-01-30T10:07:50;94334.72;;;-144.48;94.23
4123;BME280;2075;51.062;6.920;2024-01-30T10:10:36;94365.19;;;-144.48;92.52
4123;BME280;2075;51.062;6.920;2024-01-30T10:13:22;94332.69;;;-144.48;90.76
4123;BME280;2075;51.062;6.920;2024-01-30T10:16:08;94363.16;;;-144.48;90.87
4123;BME280;2075;51.062;6.920;2024-01-30T10:18:53;94385.50;;;-144.48;92.34
4123;BME280;2075;51.062;6.920;2024-01-30T10:21:42;94350.97;;;-144.48;91.86
4123;BME280;2075;51.062;6.920;2024-01-30T10:24:29;94328.63;;;-144.48;91.58
4123;BME280;2075;51.062;6.920;2024-01-30T10:27:15;94328.63;;;-144.48;91.50
4123;BME280;2075;51.062;6.920;2024-01-30T10:30:00;94361.13;;;-144.48;91.62
4123;BME280;2075;51.062;6.920;2024-01-30T10:32:49;94338.78;;;-144.48;91.26
4123;BME280;2075;51.062;6.920;2024-01-30T10:35:34;94348.94;;;-144.48;90.86
4123;BME280;2075;51.062;6.920;2024-01-30T10:38:22;94322.53;;;-144.48;91.04
4123;BME280;2075;51.062;6.920;2024-01-30T10:41:13;94322.53;;;-144.48;91.42
4123;BME280;2075;51.062;6.920;2024-01-30T10:44:05;94292.03;;;-144.48;91.46
4123;BME280;2075;51.062;6.920;2024-01-30T10:47:00;94338.78;;;-144.48;91.93
4123;BME280;2075;51.062;6.920;2024-01-30T10:49:49;94338.78;;;-144.48;92.94
4123;BME280;2075;51.062;6.920;2024-01-30T10:52:36;94308.31;;;-144.48;92.06
4123;BME280;2075;51.062;6.920;2024-01-30T10:55:25;94310.34;;;-144.48;92.15
4123;BME280;2075;51.062;6.920;2024-01-30T10:58:15;94298.16;;;-144.48;91.30
4123;BME280;2075;51.062;6.920;2024-01-30T11:01:04;94308.31;;;-144.48;90.07
4123;BME280;2075;51.062;6.920;2024-01-30T11:03:51;94265.63;;;-144.48;89.00
4123;BME280;2075;51.062;6.920;2024-01-30T11:06:41;94180.31;;;-144.48;87.26
4123;BME280;2075;51.062;6.920;2024-01-30T11:09:29;94214.84;;;-144.48;86.51
4123;BME280;2075;51.062;6.920;2024-01-30T11:12:21;94131.56;;;-144.48;84.63
4123;BME280;2075;51.062;6.920;2024-01-30T11:15:12;94131.56;;;-144.48;82.52
4123;BME280;2075;51.062;6.920;2024-01-30T11:17:58;94129.53;;;-144.48;81.45
4123;BME280;2075;51.062;6.920;2024-01-30T11:20:46;94157.97;;;-144.48;81.76
4123;BME280;2075;51.062;6.920;2024-01-30T11:23:34;94192.50;;;-144.48;84.21
4123;BME280;2075;51.062;6.920;2024-01-30T11:26:24;94198.59;;;-144.48;82.76
4123;BME280;2075;51.062;6.920;2024-01-30T11:29:16;94233.13;;;-144.48;84.27
4123;BME280;2075;51.062;6.920;2024-01-30T11:32:07;94139.69;;;-144.48;84.36
4123;BME280;2075;51.062;6.920;2024-01-30T11:34:53;94155.94;;;-144.48;83.16
4123;BME280;2075;51.062;6.920;2024-01-30T11:37:40;94115.28;;;-144.48;81.79
4123;BME280;2075;51.062;6.920;2024-01-30T11:40:27;94123.44;;;-144.48;81.17
4123;BME280;2075;51.062;6.920;2024-01-30T11:43:14;94099.03;;;-144.48;79.64
4123;BME280;2075;51.062;6.920;2024-01-30T11:46:01;93991.38;;;-144.48;77.75
4123;BME280;2075;51.062;6.920;2024-01-30T11:48:51;94038.09;;;-144.48;77.01
4123;BME280;2075;51.062;6.920;2024-01-30T11:51:38;94042.16;;;-144.48;74.73
4123;BME280;2075;51.062;6.920;2024-01-30T11:54:24;94017.78;;;-144.48;74.96
4123;BME280;2075;51.062;6.920;2024-01-30T11:57:11;94038.09;;;-144.48;74.88
4123;BME280;2075;51.062;6.920;2024-01-30T11:59:57;93991.38;;;-144.48;73.76
4123;BME280;2075;51.062;6.920;2024-01-30T12:02:43;93993.41;;;-144.48;72.46
4123;BME280;2075;51.062;6.920;2024-01-30T12:05:34;94007.63;;;-144.48;72.92
4123;BME280;2075;51.062;6.920;2024-01-30T12:08:20;93999.50;;;-144.48;72.78
4123;BME280;2075;51.062;6.920;2024-01-30T12:11:07;94029.97;;;-144.48;74.24
4123;BME280;2075;51.062;6.920;2024-01-30T12:13:55;94005.59;;;-144.48;74.85
4123;BME280;2075;51.062;6.920;2024-01-30T12:16:48;94050.28;;;-144.48;74.73
4123;BME280;2075;51.062;6.920;2024-01-30T12:19:37;93936.53;;;-144.48;77.19
4123;BME280;2075;51.062;6.920;2024-01-30T12:22:25;94074.66;;;-144.48;77.28
4123;BME280;2075;51.062;6.920;2024-01-30T12:25:14;94123.44;;;-144.48;77.80
4123;BME280;2075;51.062;6.920;2024-01-30T12:28:00;94149.84;;;-144.48;80.28
4123;BME280;2075;51.062;6.920;2024-01-30T12:30:46;94139.69;;;-144.48;80.20
4123;BME280;2075;51.062;6.920;2024-01-30T12:33:32;94119.34;;;-144.48;80.92
4123;BME280;2075;51.062;6.920;2024-01-30T12:36:18;94097.00;;;-144.48;80.86
4123;BME280;2075;51.062;6.920;2024-01-30T12:39:06;94160.00;;;-144.48;80.71
4123;BME280;2075;51.062;6.920;2024-01-30T12:41:53;94326.59;;;-144.48;81.19
4123;BME280;2075;51.062;6.920;2024-01-30T12:44:39;94117.31;;;-144.48;82.63
4123;BME280;2075;51.062;6.920;2024-01-30T12:47:26;94131.56;;;-144.48;83.09
4123;BME280;2075;51.062;6.920;2024-01-30T12:50:12;94164.06;;;-144.48;84.00
4123;BME280;2075;51.062;6.920;2024-01-30T12:53:00;94111.22;;;-144.48;83.35
4123;BME280;2075;51.062;6.920;2024-01-30T12:55:47;94137.66;;;-144.48;82.68
4123;BME280;2075;51.062;6.920;2024-01-30T12:58:34;94145.78;;;-144.48;82.76
4123;BME280;2075;51.062;6.920;2024-01-30T13:01:20;93767.91;;;-144.48;83.65
4123;BME280;2075;51.062;6.920;2024-01-30T13:04:07;94105.13;;;-144.48;84.56
4123;BME280;2075;51.062;6.920;2024-01-30T13:06:53;94129.53;;;-144.48;86.55
4123;BME280;2075;51.062;6.920;2024-01-30T13:09:39;94147.81;;;-144.48;86.52
4123;BME280;2075;51.062;6.920;2024-01-30T13:12:27;94109.19;;;-144.48;87.15
4123;BME280;2075;51.062;6.920;2024-01-30T13:15:13;94123.44;;;-144.48;88.31
4123;BME280;2075;51.062;6.920;2024-01-30T13:17:58;94101.06;;;-144.48;90.45
4123;BME280;2075;51.062;6.920;2024-01-30T13:20:44;94174.22;;;-144.48;92.02
4123;BME280;2075;51.062;6.920;2024-01-30T13:23:30;94202.66;;;-144.48;93.18
4123;BME280;2075;51.062;6.920;2024-01-30T13:26:16;94143.75;;;-144.48;93.23
4123;BME280;2075;51.062;6.920;2024-01-30T13:29:03;94192.50;;;-144.48;94.43
4123;BME280;2075;51.062;6.920;2024-01-30T13:31:49;94180.31;;;-144.48;97.06
4123;BME280;2075;51.062;6.920;2024-01-30T13:34:35;94188.44;;;-144.48;99.00
4123;BME280;2075;51.062;6.920;2024-01-30T13:37:22;94222.97;;;-144.48;100.00
4123;BME280;2075;51.062;6.920;2024-01-30T13:40:08;94192.50;;;-144.48;100.00
4123;BME280;2075;51.062;6.920;2024-01-30T13:42:55;94212.81;;;-144.48;100.00
4123;BME280;2075;51.062;6.920;2024-01-30T13:45:42;94182.34;;;-144.48;100.00
4123;BME280;2075;51.062;6.920;2024-01-30T13:48:28;94164.06;;;-144.48;100.00
4123;BME280;2075;51.062;6.920;2024-01-30T13:51:14;94212.81;;;-144.48;100.00
4123;BME280;2075;51.062;6.920;2024-01-30T13:54:01;94170.16;;;-144.48;100.00
4123;BME280;2075;51.062;6.920;2024-01-30T13:56:47;94172.19;;;-144.48;100.00
4123;BME280;2075;51.062;6.920;2024-01-30T13:59:33;94275.78;;;-144.48;100.00
4123;BME280;2075;51.062;6.920;2024-01-30T14:02:20;94218.91;;;-144.48;100.00
4123;BME280;2075;51.062;6.920;2024-01-30T14:05:07;94184.38;;;-144.48;100.00
4123;BME280;2075;51.062;6.920;2024-01-30T14:07:53;94200.63;;;-144.48;100.00
4123;BME280;2075;51.062;6.920;2024-01-30T14:10:39;94225.00;;;-144.48;100.00
4123;BME280;2075;51.062;6.920;2024-01-30T14:13:25;94188.44;;;-144.48;100.00
4123;BME280;2075;51.062;6.920;2024-01-30T14:16:11;94143.75;;;-144.48;100.00
4123;BME280;2075;51.062;6.920;2024-01-30T14:18:58;94200.63;;;-144.48;100.00
4123;BME280;2075;51.062;6.920;2024-01-30T14:21:44;94204.69;;;-144.48;100.00
4123;BME280;2075;51.062;6.920;2024-01-30T14:24:29;94196.56;;;-144.48;100.00
4123;BME280;2075;51.062;6.920;2024-01-30T14:27:15;94198.59;;;-144.48;100.00
4123;BME280;2075;51.062;6.920;2024-01-30T14:30:01;94170.16;;;-144.48;100.00
4123;BME280;2075;51.062;6.920;2024-01-30T14:32:47;94172.19;;;-144.48;100.00